Kezdőlap
METAR-TAF:

METAR-TAF

Repülőterek :

Joensuu, Finnország

földrajzi szélesség: 62-40N, földrajzi hosszúság: 029-38E, magasság: 119 m

Jelenlegi meteorológiai megfigyelések

A jelentés 36 perccel ezelõtt készült, 12:20 UTC
Nyugati szél 11 kt
Hőmérséklet 8°C
Páratartalom 49%
Légköri nyomás 1028 hPa
Látótávolság 10 km, vagy több
felhőtlen 1500 m magasságban, és nincs gomolyfelhõ

METAR: EFJO 191220Z AUTO 28011KT CAVOK 08/M02 Q1028

Idő: 15:56 (12:56 UTC)

Előrejelzés

A jelentés 1 órával és 36 perccel ezelõtt készült, 11:20 UTC
Az előrejelzés 19-én 12 óra UTC és 19-én 21 óra UTC között érvényes
Nyugat-északnyugati szél 12 kt
Látótávolság 10 km, vagy több
felhőtlen 1500 m magasságban, és nincs gomolyfelhõ

TAF: EFJO 191120Z 1912/1921 30012KT CAVOK

Meteorológiai megfigyelések és előrejelzések több, mint 4000 repülőtéren (METAR és TAF jelentéseket).

A térképen piros és sárga pontok jelzik az elérhető meteorológiai állomásokat.

Mozgassa az egeret a pont fölött, hogy megjelenjen az állomás neve.

Azután kattintson az időjárási megfigyelések és előrejelzések megtekintéséhez.

A térkép megváltoztatása: kattintson a fekete keresztel jelölt zöld gombra ráközelítéshez, a vonallal jelölt zöld gombra távolításhoz, vagy a zöld nyilakra a szomszédos térképek eléréséhez.


METAR-TAF: